Terminal Aerodrome Forecast
Issued by NWS Cleveland, OH

Home | Current Version | Previous Version | Text Only | Print | Product List | Glossary On
Versions: 1 2 3 4 5 6 7 8 9 10 11 12 13 14
000
FTUS41 KCLE 182300
TAFYNG
TAF
KYNG 182330Z 1900/1924 34006KT P6SM SCT120 BKN200
     FM190700 02005KT P6SM SCT025 BKN035
      TEMPO 1908/1910 BKN025
     FM191100 03005KT P6SM SCT035
     FM191500 03010G18KT P6SM FEW100 SCT250=

USA.gov is the U.S. government's official web portal to all federal, state and local government web resources and services.